sensor_id;sensor_type;location;lat;lon;timestamp;temperature;humidity
54461;DHT22;40371;49.414;11.010;2022-09-21T00:02:24;8.60;99.90
54461;DHT22;40371;49.414;11.010;2022-09-21T00:04:50;8.60;99.90
54461;DHT22;40371;49.414;11.010;2022-09-21T00:07:16;8.60;99.90
54461;DHT22;40371;49.414;11.010;2022-09-21T00:09:41;8.60;99.90
54461;DHT22;40371;49.414;11.010;2022-09-21T00:12:07;8.70;99.90
54461;DHT22;40371;49.414;11.010;2022-09-21T00:14:34;8.70;99.90
54461;DHT22;40371;49.414;11.010;2022-09-21T00:16:59;8.70;99.90
54461;DHT22;40371;49.414;11.010;2022-09-21T00:19:25;8.70;99.90
54461;DHT22;40371;49.414;11.010;2022-09-21T00:21:53;8.60;99.90
54461;DHT22;40371;49.414;11.010;2022-09-21T00:24:19;8.60;99.90
54461;DHT22;40371;49.414;11.010;2022-09-21T00:26:45;8.50;99.90
54461;DHT22;40371;49.414;11.010;2022-09-21T00:29:10;8.30;99.90
54461;DHT22;40371;49.414;11.010;2022-09-21T00:31:38;8.40;99.90
54461;DHT22;40371;49.414;11.010;2022-09-21T00:34:04;8.20;99.90
54461;DHT22;40371;49.414;11.010;2022-09-21T00:36:33;8.10;99.90
54461;DHT22;40371;49.414;11.010;2022-09-21T00:38:59;8.10;99.90
54461;DHT22;40371;49.414;11.010;2022-09-21T00:41:28;8.10;99.90
54461;DHT22;40371;49.414;11.010;2022-09-21T00:46:41;8.20;99.90
54461;DHT22;40371;49.414;11.010;2022-09-21T00:49:07;8.20;99.90
54461;DHT22;40371;49.414;11.010;2022-09-21T00:51:34;8.20;99.90
54461;DHT22;40371;49.414;11.010;2022-09-21T00:54:03;8.30;99.90
54461;DHT22;40371;49.414;11.010;2022-09-21T00:56:29;8.10;99.90
54461;DHT22;40371;49.414;11.010;2022-09-21T00:58:55;7.90;99.90
54461;DHT22;40371;49.414;11.010;2022-09-21T01:01:21;7.90;99.90
54461;DHT22;40371;49.414;11.010;2022-09-21T01:03:49;7.70;99.90
54461;DHT22;40371;49.414;11.010;2022-09-21T01:06:18;8.00;99.90
54461;DHT22;40371;49.414;11.010;2022-09-21T01:08:48;8.10;99.90
54461;DHT22;40371;49.414;11.010;2022-09-21T01:17:27;8.20;99.90
54461;DHT22;40371;49.414;11.010;2022-09-21T01:23:09;8.20;99.90
54461;DHT22;40371;49.414;11.010;2022-09-21T01:30:42;7.70;99.90
54461;DHT22;40371;49.414;11.010;2022-09-21T01:33:13;7.60;99.90
54461;DHT22;40371;49.414;11.010;2022-09-21T01:35:46;7.50;99.90
54461;DHT22;40371;49.414;11.010;2022-09-21T01:38:22;7.50;99.90
54461;DHT22;40371;49.414;11.010;2022-09-21T01:40:51;7.50;99.90
54461;DHT22;40371;49.414;11.010;2022-09-21T01:43:26;7.60;99.90
54461;DHT22;40371;49.414;11.010;2022-09-21T01:45:53;7.70;99.90
54461;DHT22;40371;49.414;11.010;2022-09-21T01:48:22;7.80;99.90
54461;DHT22;40371;49.414;11.010;2022-09-21T01:50:52;7.70;99.90
54461;DHT22;40371;49.414;11.010;2022-09-21T01:53:40;7.70;99.90
54461;DHT22;40371;49.414;11.010;2022-09-21T01:56:31;7.80;99.90
54461;DHT22;40371;49.414;11.010;2022-09-21T01:59:05;7.80;99.90
54461;DHT22;40371;49.414;11.010;2022-09-21T02:01:36;7.80;99.90
54461;DHT22;40371;49.414;11.010;2022-09-21T02:04:07;7.90;99.90
54461;DHT22;40371;49.414;11.010;2022-09-21T02:06:35;7.90;99.90
54461;DHT22;40371;49.414;11.010;2022-09-21T02:09:03;7.90;99.90
54461;DHT22;40371;49.414;11.010;2022-09-21T02:11:28;7.90;99.90
54461;DHT22;40371;49.414;11.010;2022-09-21T02:13:54;7.80;99.90
54461;DHT22;40371;49.414;11.010;2022-09-21T02:19:35;7.90;99.90
54461;DHT22;40371;49.414;11.010;2022-09-21T02:22:29;7.90;99.90
54461;DHT22;40371;49.414;11.010;2022-09-21T02:25:06;7.90;99.90
54461;DHT22;40371;49.414;11.010;2022-09-21T02:27:42;7.70;99.90
54461;DHT22;40371;49.414;11.010;2022-09-21T02:30:18;7.70;99.90
54461;DHT22;40371;49.414;11.010;2022-09-21T02:38:16;7.90;99.90
54461;DHT22;40371;49.414;11.010;2022-09-21T02:41:02;7.90;99.90
54461;DHT22;40371;49.414;11.010;2022-09-21T02:43:47;7.90;99.90
54461;DHT22;40371;49.414;11.010;2022-09-21T02:46:18;8.00;99.90
54461;DHT22;40371;49.414;11.010;2022-09-21T02:48:53;8.00;99.90
54461;DHT22;40371;49.414;11.010;2022-09-21T02:51:32;8.00;99.90
54461;DHT22;40371;49.414;11.010;2022-09-21T02:54:02;8.00;99.90
54461;DHT22;40371;49.414;11.010;2022-09-21T02:56:30;7.90;99.90
54461;DHT22;40371;49.414;11.010;2022-09-21T02:59:00;7.90;99.90
54461;DHT22;40371;49.414;11.010;2022-09-21T03:01:27;8.00;99.90
54461;DHT22;40371;49.414;11.010;2022-09-21T03:03:53;8.10;99.90
54461;DHT22;40371;49.414;11.010;2022-09-21T03:06:19;8.10;99.90
54461;DHT22;40371;49.414;11.010;2022-09-21T03:08:45;8.10;99.90
54461;DHT22;40371;49.414;11.010;2022-09-21T03:11:14;8.20;99.90
54461;DHT22;40371;49.414;11.010;2022-09-21T03:13:40;8.10;99.90
54461;DHT22;40371;49.414;11.010;2022-09-21T03:16:06;8.20;99.90
54461;DHT22;40371;49.414;11.010;2022-09-21T03:18:32;7.80;99.90
54461;DHT22;40371;49.414;11.010;2022-09-21T03:20:58;7.60;99.90
54461;DHT22;40371;49.414;11.010;2022-09-21T03:23:24;7.80;99.90
54461;DHT22;40371;49.414;11.010;2022-09-21T03:25:50;7.70;99.90
54461;DHT22;40371;49.414;11.010;2022-09-21T03:28:17;7.90;99.90
54461;DHT22;40371;49.414;11.010;2022-09-21T03:30:42;7.90;99.90
54461;DHT22;40371;49.414;11.010;2022-09-21T03:33:08;7.90;99.90
54461;DHT22;40371;49.414;11.010;2022-09-21T03:35:34;7.90;99.90
54461;DHT22;40371;49.414;11.010;2022-09-21T03:38:00;7.90;99.90
54461;DHT22;40371;49.414;11.010;2022-09-21T03:40:26;7.90;99.90
54461;DHT22;40371;49.414;11.010;2022-09-21T03:42:53;8.00;99.90
54461;DHT22;40371;49.414;11.010;2022-09-21T03:45:19;8.00;99.90
54461;DHT22;40371;49.414;11.010;2022-09-21T03:47:46;8.00;99.90
54461;DHT22;40371;49.414;11.010;2022-09-21T03:50:13;7.90;99.90
54461;DHT22;40371;49.414;11.010;2022-09-21T03:52:39;7.90;99.90
54461;DHT22;40371;49.414;11.010;2022-09-21T03:55:06;7.90;99.90
54461;DHT22;40371;49.414;11.010;2022-09-21T03:57:32;7.90;99.90
54461;DHT22;40371;49.414;11.010;2022-09-21T03:59:59;7.90;99.90
54461;DHT22;40371;49.414;11.010;2022-09-21T04:02:24;7.70;99.90
54461;DHT22;40371;49.414;11.010;2022-09-21T04:04:50;7.70;99.90
54461;DHT22;40371;49.414;11.010;2022-09-21T04:07:16;7.70;99.90
54461;DHT22;40371;49.414;11.010;2022-09-21T04:09:41;7.90;99.90
54461;DHT22;40371;49.414;11.010;2022-09-21T04:12:07;7.80;99.90
54461;DHT22;40371;49.414;11.010;2022-09-21T04:14:32;7.80;99.90
54461;DHT22;40371;49.414;11.010;2022-09-21T04:16:58;7.80;99.90
54461;DHT22;40371;49.414;11.010;2022-09-21T04:19:24;7.70;99.90
54461;DHT22;40371;49.414;11.010;2022-09-21T04:21:50;7.50;99.90
54461;DHT22;40371;49.414;11.010;2022-09-21T04:24:20;7.50;99.90
54461;DHT22;40371;49.414;11.010;2022-09-21T04:26:46;7.30;99.90
54461;DHT22;40371;49.414;11.010;2022-09-21T04:29:13;7.40;99.90
54461;DHT22;40371;49.414;11.010;2022-09-21T04:31:39;7.40;99.90
54461;DHT22;40371;49.414;11.010;2022-09-21T04:34:05;7.40;99.90
54461;DHT22;40371;49.414;11.010;2022-09-21T04:36:30;7.50;99.90
54461;DHT22;40371;49.414;11.010;2022-09-21T04:38:59;7.50;99.90
54461;DHT22;40371;49.414;11.010;2022-09-21T04:41:25;7.70;99.90
54461;DHT22;40371;49.414;11.010;2022-09-21T04:43:50;7.70;99.90
54461;DHT22;40371;49.414;11.010;2022-09-21T04:46:18;7.80;99.90
54461;DHT22;40371;49.414;11.010;2022-09-21T04:48:44;7.80;99.90
54461;DHT22;40371;49.414;11.010;2022-09-21T04:51:11;7.80;99.90
54461;DHT22;40371;49.414;11.010;2022-09-21T04:53:38;7.60;99.90
54461;DHT22;40371;49.414;11.010;2022-09-21T04:56:05;7.40;99.90
54461;DHT22;40371;49.414;11.010;2022-09-21T04:58:31;7.50;99.90
54461;DHT22;40371;49.414;11.010;2022-09-21T05:00:57;7.60;99.90
54461;DHT22;40371;49.414;11.010;2022-09-21T05:03:24;7.70;99.90
54461;DHT22;40371;49.414;11.010;2022-09-21T05:05:52;7.70;99.90
54461;DHT22;40371;49.414;11.010;2022-09-21T05:08:19;7.80;99.90
54461;DHT22;40371;49.414;11.010;2022-09-21T05:11:10;7.80;99.90
54461;DHT22;40371;49.414;11.010;2022-09-21T05:13:55;7.70;99.90
54461;DHT22;40371;49.414;11.010;2022-09-21T05:16:20;7.60;99.90
54461;DHT22;40371;49.414;11.010;2022-09-21T05:18:46;7.60;99.90
54461;DHT22;40371;49.414;11.010;2022-09-21T05:21:13;7.40;99.90
54461;DHT22;40371;49.414;11.010;2022-09-21T05:23:39;7.40;99.90
54461;DHT22;40371;49.414;11.010;2022-09-21T05:26:05;7.50;99.90
54461;DHT22;40371;49.414;11.010;2022-09-21T05:28:32;7.60;99.90
54461;DHT22;40371;49.414;11.010;2022-09-21T05:37:08;7.90;99.90
54461;DHT22;40371;49.414;11.010;2022-09-21T05:39:34;7.80;99.90
54461;DHT22;40371;49.414;11.010;2022-09-21T05:42:00;7.90;99.90
54461;DHT22;40371;49.414;11.010;2022-09-21T05:44:26;7.90;99.90
54461;DHT22;40371;49.414;11.010;2022-09-21T05:47:03;7.90;99.90
54461;DHT22;40371;49.414;11.010;2022-09-21T05:49:39;7.80;99.90
54461;DHT22;40371;49.414;11.010;2022-09-21T05:52:23;7.90;99.90
54461;DHT22;40371;49.414;11.010;2022-09-21T05:57:47;8.00;99.90
54461;DHT22;40371;49.414;11.010;2022-09-21T06:00:18;8.00;99.90
54461;DHT22;40371;49.414;11.010;2022-09-21T06:03:00;8.00;99.90
54461;DHT22;40371;49.414;11.010;2022-09-21T06:05:29;8.00;99.90
54461;DHT22;40371;49.414;11.010;2022-09-21T06:07:54;8.00;99.90
54461;DHT22;40371;49.414;11.010;2022-09-21T06:10:20;8.00;99.90
54461;DHT22;40371;49.414;11.010;2022-09-21T06:12:45;8.00;99.90
54461;DHT22;40371;49.414;11.010;2022-09-21T06:15:13;7.90;99.90
54461;DHT22;40371;49.414;11.010;2022-09-21T06:17:39;8.00;99.90
54461;DHT22;40371;49.414;11.010;2022-09-21T06:20:05;8.10;99.90
54461;DHT22;40371;49.414;11.010;2022-09-21T06:22:32;8.20;99.90
54461;DHT22;40371;49.414;11.010;2022-09-21T06:24:58;8.10;99.90
54461;DHT22;40371;49.414;11.010;2022-09-21T06:27:23;8.10;99.90
54461;DHT22;40371;49.414;11.010;2022-09-21T06:29:49;8.00;99.90
54461;DHT22;40371;49.414;11.010;2022-09-21T06:32:14;8.10;99.90
54461;DHT22;40371;49.414;11.010;2022-09-21T06:34:40;8.10;99.90
54461;DHT22;40371;49.414;11.010;2022-09-21T06:37:07;8.00;99.90
54461;DHT22;40371;49.414;11.010;2022-09-21T06:39:33;8.10;99.90
54461;DHT22;40371;49.414;11.010;2022-09-21T06:41:58;8.20;99.90
54461;DHT22;40371;49.414;11.010;2022-09-21T06:44:24;8.20;99.90
54461;DHT22;40371;49.414;11.010;2022-09-21T06:46:50;8.30;99.90
54461;DHT22;40371;49.414;11.010;2022-09-21T06:49:15;8.30;99.90
54461;DHT22;40371;49.414;11.010;2022-09-21T06:51:41;8.20;99.90
54461;DHT22;40371;49.414;11.010;2022-09-21T06:54:08;8.30;99.90
54461;DHT22;40371;49.414;11.010;2022-09-21T06:56:33;8.20;99.90
54461;DHT22;40371;49.414;11.010;2022-09-21T06:59:00;8.30;99.90
54461;DHT22;40371;49.414;11.010;2022-09-21T07:01:26;8.30;99.90
54461;DHT22;40371;49.414;11.010;2022-09-21T07:03:52;8.30;99.90
54461;DHT22;40371;49.414;11.010;2022-09-21T07:06:18;8.40;99.90
54461;DHT22;40371;49.414;11.010;2022-09-21T07:08:45;8.40;99.90
54461;DHT22;40371;49.414;11.010;2022-09-21T07:11:12;8.40;99.90
54461;DHT22;40371;49.414;11.010;2022-09-21T07:13:38;8.20;99.90
54461;DHT22;40371;49.414;11.010;2022-09-21T07:16:05;8.30;99.90
54461;DHT22;40371;49.414;11.010;2022-09-21T07:18:35;8.60;99.90
54461;DHT22;40371;49.414;11.010;2022-09-21T07:21:08;8.80;99.90
54461;DHT22;40371;49.414;11.010;2022-09-21T07:23:34;8.80;99.90
54461;DHT22;40371;49.414;11.010;2022-09-21T07:26:09;8.80;99.90
54461;DHT22;40371;49.414;11.010;2022-09-21T07:28:35;9.00;99.90
54461;DHT22;40371;49.414;11.010;2022-09-21T07:31:13;9.00;99.90
54461;DHT22;40371;49.414;11.010;2022-09-21T07:33:39;8.70;99.90
54461;DHT22;40371;49.414;11.010;2022-09-21T07:36:05;8.60;99.90
54461;DHT22;40371;49.414;11.010;2022-09-21T07:38:39;8.90;99.90
54461;DHT22;40371;49.414;11.010;2022-09-21T07:41:09;8.50;99.90
54461;DHT22;40371;49.414;11.010;2022-09-21T07:43:35;8.60;99.90
54461;DHT22;40371;49.414;11.010;2022-09-21T07:46:05;8.80;99.90
54461;DHT22;40371;49.414;11.010;2022-09-21T07:48:31;8.80;99.90
54461;DHT22;40371;49.414;11.010;2022-09-21T07:51:01;8.20;99.90
54461;DHT22;40371;49.414;11.010;2022-09-21T07:53:29;8.20;99.90
54461;DHT22;40371;49.414;11.010;2022-09-21T07:56:02;8.30;99.90
54461;DHT22;40371;49.414;11.010;2022-09-21T07:58:29;8.70;99.90
54461;DHT22;40371;49.414;11.010;2022-09-21T08:01:13;9.00;99.90
54461;DHT22;40371;49.414;11.010;2022-09-21T08:03:39;9.10;99.90
54461;DHT22;40371;49.414;11.010;2022-09-21T08:06:05;9.30;99.90
54461;DHT22;40371;49.414;11.010;2022-09-21T08:08:31;9.50;99.90
54461;DHT22;40371;49.414;11.010;2022-09-21T08:11:02;9.30;99.90
54461;DHT22;40371;49.414;11.010;2022-09-21T08:13:28;9.30;99.90
54461;DHT22;40371;49.414;11.010;2022-09-21T08:15:58;9.50;99.90
54461;DHT22;40371;49.414;11.010;2022-09-21T08:18:24;9.70;99.90
54461;DHT22;40371;49.414;11.010;2022-09-21T08:20:57;9.60;99.90
54461;DHT22;40371;49.414;11.010;2022-09-21T08:23:23;9.70;99.90
54461;DHT22;40371;49.414;11.010;2022-09-21T08:25:50;9.80;99.90
54461;DHT22;40371;49.414;11.010;2022-09-21T08:28:16;10.00;99.90
54461;DHT22;40371;49.414;11.010;2022-09-21T08:30:43;10.00;99.90
54461;DHT22;40371;49.414;11.010;2022-09-21T08:33:09;10.10;99.90
54461;DHT22;40371;49.414;11.010;2022-09-21T08:35:34;10.30;99.90
54461;DHT22;40371;49.414;11.010;2022-09-21T08:38:01;10.50;99.90
54461;DHT22;40371;49.414;11.010;2022-09-21T08:40:27;10.70;99.90
54461;DHT22;40371;49.414;11.010;2022-09-21T08:45:38;10.90;99.90
54461;DHT22;40371;49.414;11.010;2022-09-21T08:48:15;10.80;99.90
54461;DHT22;40371;49.414;11.010;2022-09-21T08:50:47;10.50;99.90
54461;DHT22;40371;49.414;11.010;2022-09-21T08:53:19;10.90;99.90
54461;DHT22;40371;49.414;11.010;2022-09-21T08:55:46;11.00;99.90
54461;DHT22;40371;49.414;11.010;2022-09-21T08:58:20;11.10;99.90
54461;DHT22;40371;49.414;11.010;2022-09-21T09:03:48;10.90;99.90
54461;DHT22;40371;49.414;11.010;2022-09-21T09:06:21;10.90;99.90
54461;DHT22;40371;49.414;11.010;2022-09-21T09:14:32;11.10;99.90
54461;DHT22;40371;49.414;11.010;2022-09-21T09:19:55;11.80;99.90
54461;DHT22;40371;49.414;11.010;2022-09-21T09:22:28;12.20;99.90
54461;DHT22;40371;49.414;11.010;2022-09-21T09:24:59;12.60;99.90
54461;DHT22;40371;49.414;11.010;2022-09-21T09:27:40;12.90;99.90
54461;DHT22;40371;49.414;11.010;2022-09-21T09:30:25;13.30;99.90
54461;DHT22;40371;49.414;11.010;2022-09-21T09:35:54;13.70;99.90
54461;DHT22;40371;49.414;11.010;2022-09-21T09:38:30;13.20;99.90
54461;DHT22;40371;49.414;11.010;2022-09-21T09:44:02;14.00;99.90
54461;DHT22;40371;49.414;11.010;2022-09-21T09:46:36;15.50;99.90
54461;DHT22;40371;49.414;11.010;2022-09-21T09:51:47;16.50;99.90
54461;DHT22;40371;49.414;11.010;2022-09-21T09:54:16;17.60;99.90
54461;DHT22;40371;49.414;11.010;2022-09-21T09:56:43;16.90;99.90
54461;DHT22;40371;49.414;11.010;2022-09-21T09:59:22;17.30;99.90
54461;DHT22;40371;49.414;11.010;2022-09-21T10:02:04;17.80;99.90
54461;DHT22;40371;49.414;11.010;2022-09-21T10:04:31;18.80;99.90
54461;DHT22;40371;49.414;11.010;2022-09-21T10:06:56;19.60;99.90
54461;DHT22;40371;49.414;11.010;2022-09-21T10:09:31;19.30;99.90
54461;DHT22;40371;49.414;11.010;2022-09-21T10:12:00;19.50;99.90
54461;DHT22;40371;49.414;11.010;2022-09-21T10:14:29;19.50;99.90
54461;DHT22;40371;49.414;11.010;2022-09-21T10:17:02;20.40;99.90
54461;DHT22;40371;49.414;11.010;2022-09-21T10:19:29;18.90;99.90
54461;DHT22;40371;49.414;11.010;2022-09-21T10:21:57;19.60;99.90
54461;DHT22;40371;49.414;11.010;2022-09-21T10:24:35;19.90;99.90
54461;DHT22;40371;49.414;11.010;2022-09-21T10:27:12;19.90;99.90
54461;DHT22;40371;49.414;11.010;2022-09-21T10:29:43;20.50;99.90
54461;DHT22;40371;49.414;11.010;2022-09-21T10:34:40;19.60;99.90
54461;DHT22;40371;49.414;11.010;2022-09-21T10:37:27;20.30;99.90
54461;DHT22;40371;49.414;11.010;2022-09-21T10:39:53;20.20;99.90
54461;DHT22;40371;49.414;11.010;2022-09-21T10:42:20;19.10;99.90
54461;DHT22;40371;49.414;11.010;2022-09-21T10:44:51;18.70;99.90
54461;DHT22;40371;49.414;11.010;2022-09-21T10:49:58;18.80;99.90
54461;DHT22;40371;49.414;11.010;2022-09-21T10:52:37;20.20;99.90
54461;DHT22;40371;49.414;11.010;2022-09-21T10:55:04;20.00;99.90
54461;DHT22;40371;49.414;11.010;2022-09-21T10:57:31;19.60;99.90
54461;DHT22;40371;49.414;11.010;2022-09-21T11:00:05;19.70;99.90
54461;DHT22;40371;49.414;11.010;2022-09-21T11:02:36;19.40;99.90
54461;DHT22;40371;49.414;11.010;2022-09-21T11:05:08;19.50;99.90
54461;DHT22;40371;49.414;11.010;2022-09-21T11:07:51;19.80;99.90
54461;DHT22;40371;49.414;11.010;2022-09-21T11:10:20;19.60;99.90
54461;DHT22;40371;49.414;11.010;2022-09-21T11:12:50;20.00;99.90
54461;DHT22;40371;49.414;11.010;2022-09-21T11:15:43;19.90;99.90
54461;DHT22;40371;49.414;11.010;2022-09-21T11:18:21;19.90;99.90
54461;DHT22;40371;49.414;11.010;2022-09-21T11:20:51;20.10;99.90
54461;DHT22;40371;49.414;11.010;2022-09-21T11:26:24;20.20;99.90
54461;DHT22;40371;49.414;11.010;2022-09-21T11:29:12;19.80;99.70
54461;DHT22;40371;49.414;11.010;2022-09-21T11:35:07;19.40;98.20
54461;DHT22;40371;49.414;11.010;2022-09-21T11:40:46;20.60;99.90
54461;DHT22;40371;49.414;11.010;2022-09-21T11:46:19;22.00;96.60
54461;DHT22;40371;49.414;11.010;2022-09-21T11:51:57;22.40;94.30
54461;DHT22;40371;49.414;11.010;2022-09-21T11:57:08;21.50;93.30
54461;DHT22;40371;49.414;11.010;2022-09-21T12:00:04;20.80;93.70
54461;DHT22;40371;49.414;11.010;2022-09-21T12:05:40;19.70;94.80
54461;DHT22;40371;49.414;11.010;2022-09-21T12:17:34;18.50;96.00
54461;DHT22;40371;49.414;11.010;2022-09-21T12:20:15;18.10;96.60
54461;DHT22;40371;49.414;11.010;2022-09-21T12:22:45;18.20;96.60
54461;DHT22;40371;49.414;11.010;2022-09-21T12:25:33;18.40;95.50
54461;DHT22;40371;49.414;11.010;2022-09-21T12:28:10;18.60;95.60
54461;DHT22;40371;49.414;11.010;2022-09-21T12:30:40;18.40;95.60
54461;DHT22;40371;49.414;11.010;2022-09-21T12:33:26;18.60;96.30
54461;DHT22;40371;49.414;11.010;2022-09-21T12:36:14;18.70;95.70
54461;DHT22;40371;49.414;11.010;2022-09-21T12:45:40;18.30;96.00
54461;DHT22;40371;49.414;11.010;2022-09-21T12:52:59;17.80;97.30
54461;DHT22;40371;49.414;11.010;2022-09-21T13:04:26;16.90;99.10
54461;DHT22;40371;49.414;11.010;2022-09-21T13:09:46;16.70;99.90
54461;DHT22;40371;49.414;11.010;2022-09-21T13:12:26;16.70;99.90
54461;DHT22;40371;49.414;11.010;2022-09-21T13:15:39;16.90;99.90
54461;DHT22;40371;49.414;11.010;2022-09-21T13:18:23;17.20;99.20
54461;DHT22;40371;49.414;11.010;2022-09-21T13:20:51;17.50;98.50
54461;DHT22;40371;49.414;11.010;2022-09-21T13:23:29;17.50;98.50
54461;DHT22;40371;49.414;11.010;2022-09-21T13:26:02;17.80;98.10
54461;DHT22;40371;49.414;11.010;2022-09-21T13:34:18;17.90;96.80
54461;DHT22;40371;49.414;11.010;2022-09-21T13:47:40;17.40;97.90
54461;DHT22;40371;49.414;11.010;2022-09-21T13:50:30;17.30;98.50
54461;DHT22;40371;49.414;11.010;2022-09-21T13:53:05;17.40;99.10
54461;DHT22;40371;49.414;11.010;2022-09-21T13:55:34;17.50;99.60
54461;DHT22;40371;49.414;11.010;2022-09-21T13:58:05;17.50;98.40
54461;DHT22;40371;49.414;11.010;2022-09-21T14:00:49;17.30;99.90
54461;DHT22;40371;49.414;11.010;2022-09-21T14:05:59;17.00;99.70
54461;DHT22;40371;49.414;11.010;2022-09-21T14:08:31;17.10;99.90
54461;DHT22;40371;49.414;11.010;2022-09-21T14:11:04;17.20;99.30
54461;DHT22;40371;49.414;11.010;2022-09-21T14:13:44;17.10;96.50
54461;DHT22;40371;49.414;11.010;2022-09-21T14:24:41;17.30;95.10
54461;DHT22;40371;49.414;11.010;2022-09-21T14:27:32;17.10;95.30
54461;DHT22;40371;49.414;11.010;2022-09-21T14:35:24;17.20;96.50
54461;DHT22;40371;49.414;11.010;2022-09-21T14:37:56;17.40;97.10
54461;DHT22;40371;49.414;11.010;2022-09-21T14:40:33;17.50;96.90
54461;DHT22;40371;49.414;11.010;2022-09-21T14:43:07;17.60;96.60
54461;DHT22;40371;49.414;11.010;2022-09-21T14:54:13;17.40;96.50
54461;DHT22;40371;49.414;11.010;2022-09-21T15:02:25;16.70;94.80
54461;DHT22;40371;49.414;11.010;2022-09-21T15:08:01;16.60;95.40
54461;DHT22;40371;49.414;11.010;2022-09-21T15:10:53;16.50;94.90
54461;DHT22;40371;49.414;11.010;2022-09-21T15:18:48;16.20;95.10
54461;DHT22;40371;49.414;11.010;2022-09-21T15:21:21;16.00;95.00
54461;DHT22;40371;49.414;11.010;2022-09-21T15:23:49;15.90;94.50
54461;DHT22;40371;49.414;11.010;2022-09-21T15:26:22;15.80;96.50
54461;DHT22;40371;49.414;11.010;2022-09-21T15:28:58;15.70;96.40
54461;DHT22;40371;49.414;11.010;2022-09-21T15:31:31;15.60;95.80
54461;DHT22;40371;49.414;11.010;2022-09-21T15:33:57;15.60;95.80
54461;DHT22;40371;49.414;11.010;2022-09-21T15:36:24;15.50;95.20
54461;DHT22;40371;49.414;11.010;2022-09-21T15:38:52;15.50;95.40
54461;DHT22;40371;49.414;11.010;2022-09-21T15:41:44;15.40;95.00
54461;DHT22;40371;49.414;11.010;2022-09-21T15:44:25;15.30;96.20
54461;DHT22;40371;49.414;11.010;2022-09-21T15:46:56;15.40;97.70
54461;DHT22;40371;49.414;11.010;2022-09-21T15:49:26;15.30;98.00
54461;DHT22;40371;49.414;11.010;2022-09-21T15:54:59;15.20;99.80
54461;DHT22;40371;49.414;11.010;2022-09-21T15:57:34;15.20;99.90
54461;DHT22;40371;49.414;11.010;2022-09-21T16:02:47;15.20;99.90
54461;DHT22;40371;49.414;11.010;2022-09-21T16:05:15;15.20;99.90
54461;DHT22;40371;49.414;11.010;2022-09-21T16:07:41;15.20;99.90
54461;DHT22;40371;49.414;11.010;2022-09-21T16:13:03;15.30;99.90
54461;DHT22;40371;49.414;11.010;2022-09-21T16:16:05;15.20;99.90
54461;DHT22;40371;49.414;11.010;2022-09-21T16:18:45;15.20;99.90
54461;DHT22;40371;49.414;11.010;2022-09-21T16:23:46;15.10;99.90
54461;DHT22;40371;49.414;11.010;2022-09-21T16:26:24;15.10;99.90
54461;DHT22;40371;49.414;11.010;2022-09-21T16:29:55;15.10;99.90
54461;DHT22;40371;49.414;11.010;2022-09-21T16:34:50;15.10;99.90
54461;DHT22;40371;49.414;11.010;2022-09-21T16:39:58;15.20;99.90
54461;DHT22;40371;49.414;11.010;2022-09-21T16:42:26;15.10;99.90
54461;DHT22;40371;49.414;11.010;2022-09-21T16:44:53;15.10;99.90
54461;DHT22;40371;49.414;11.010;2022-09-21T16:47:23;15.10;99.90
54461;DHT22;40371;49.414;11.010;2022-09-21T16:49:58;15.00;99.90
54461;DHT22;40371;49.414;11.010;2022-09-21T16:52:28;14.90;99.90
54461;DHT22;40371;49.414;11.010;2022-09-21T16:54:54;14.70;99.90
54461;DHT22;40371;49.414;11.010;2022-09-21T16:57:22;14.60;99.90
54461;DHT22;40371;49.414;11.010;2022-09-21T16:59:48;14.50;99.90
54461;DHT22;40371;49.414;11.010;2022-09-21T17:02:16;14.40;99.90
54461;DHT22;40371;49.414;11.010;2022-09-21T17:04:42;14.40;99.90
54461;DHT22;40371;49.414;11.010;2022-09-21T17:07:10;14.40;99.90
54461;DHT22;40371;49.414;11.010;2022-09-21T17:09:39;14.40;99.90
54461;DHT22;40371;49.414;11.010;2022-09-21T17:12:10;14.30;99.90
54461;DHT22;40371;49.414;11.010;2022-09-21T17:14:36;14.30;99.90
54461;DHT22;40371;49.414;11.010;2022-09-21T17:17:06;14.20;99.90
54461;DHT22;40371;49.414;11.010;2022-09-21T17:19:35;14.10;99.90
54461;DHT22;40371;49.414;11.010;2022-09-21T17:22:02;14.00;99.90
54461;DHT22;40371;49.414;11.010;2022-09-21T17:24:28;14.00;99.90
54461;DHT22;40371;49.414;11.010;2022-09-21T17:26:55;14.00;99.90
54461;DHT22;40371;49.414;11.010;2022-09-21T17:29:25;13.90;99.90
54461;DHT22;40371;49.414;11.010;2022-09-21T17:31:53;13.90;99.90
54461;DHT22;40371;49.414;11.010;2022-09-21T17:34:27;13.80;99.90
54461;DHT22;40371;49.414;11.010;2022-09-21T17:36:54;13.80;99.90
54461;DHT22;40371;49.414;11.010;2022-09-21T17:39:20;13.70;99.90
54461;DHT22;40371;49.414;11.010;2022-09-21T17:41:52;13.60;99.90
54461;DHT22;40371;49.414;11.010;2022-09-21T17:47:27;13.40;99.90
54461;DHT22;40371;49.414;11.010;2022-09-21T17:50:15;13.40;99.90
54461;DHT22;40371;49.414;11.010;2022-09-21T17:52:44;13.30;99.90
54461;DHT22;40371;49.414;11.010;2022-09-21T17:55:28;13.20;99.90
54461;DHT22;40371;49.414;11.010;2022-09-21T18:02:59;13.00;99.90
54461;DHT22;40371;49.414;11.010;2022-09-21T18:05:28;12.90;99.90
54461;DHT22;40371;49.414;11.010;2022-09-21T18:07:54;12.80;99.90
54461;DHT22;40371;49.414;11.010;2022-09-21T18:10:23;12.80;99.90
54461;DHT22;40371;49.414;11.010;2022-09-21T18:16:30;12.50;99.90
54461;DHT22;40371;49.414;11.010;2022-09-21T18:19:34;12.50;99.90
54461;DHT22;40371;49.414;11.010;2022-09-21T18:22:19;12.40;99.90
54461;DHT22;40371;49.414;11.010;2022-09-21T18:24:46;12.40;99.90
54461;DHT22;40371;49.414;11.010;2022-09-21T18:27:12;12.30;99.90
54461;DHT22;40371;49.414;11.010;2022-09-21T18:29:38;12.30;99.90
54461;DHT22;40371;49.414;11.010;2022-09-21T18:35:22;12.30;99.90
54461;DHT22;40371;49.414;11.010;2022-09-21T18:40:41;12.10;99.90
54461;DHT22;40371;49.414;11.010;2022-09-21T18:46:09;12.10;99.90
54461;DHT22;40371;49.414;11.010;2022-09-21T18:51:28;11.80;99.90
54461;DHT22;40371;49.414;11.010;2022-09-21T18:53:55;11.70;99.90
54461;DHT22;40371;49.414;11.010;2022-09-21T18:56:27;11.70;99.90
54461;DHT22;40371;49.414;11.010;2022-09-21T18:58:54;11.60;99.90
54461;DHT22;40371;49.414;11.010;2022-09-21T19:01:22;11.70;99.90
54461;DHT22;40371;49.414;11.010;2022-09-21T19:03:48;11.70;99.90
54461;DHT22;40371;49.414;11.010;2022-09-21T19:06:40;11.70;99.90
54461;DHT22;40371;49.414;11.010;2022-09-21T19:09:28;11.70;99.90
54461;DHT22;40371;49.414;11.010;2022-09-21T19:17:56;11.50;99.90
54461;DHT22;40371;49.414;11.010;2022-09-21T19:24:31;11.40;99.90
54461;DHT22;40371;49.414;11.010;2022-09-21T19:41:52;10.90;99.90
54461;DHT22;40371;49.414;11.010;2022-09-21T19:47:30;11.00;99.90